createdAt,value
2023-02-24T00:04:59.726Z,11.80
2023-02-24T00:10:06.018Z,11.80
2023-02-24T00:15:09.762Z,11.70
2023-02-24T00:20:13.571Z,11.70
2023-02-24T00:25:18.195Z,11.70
2023-02-24T00:30:23.927Z,11.80
2023-02-24T00:35:27.013Z,11.80
2023-02-24T00:40:31.588Z,11.70
2023-02-24T00:45:39.109Z,11.70
2023-02-24T00:50:42.213Z,11.60
2023-02-24T00:55:46.679Z,11.60
2023-02-24T01:00:49.770Z,11.50
2023-02-24T01:05:53.709Z,11.40
2023-02-24T01:11:13.258Z,11.40
2023-02-24T01:16:18.757Z,11.30
2023-02-24T01:21:22.597Z,11.30
2023-02-24T01:26:27.404Z,11.30
2023-02-24T01:31:30.933Z,11.20
2023-02-24T01:36:34.691Z,11.20
2023-02-24T01:41:41.105Z,11.20
2023-02-24T01:46:46.088Z,11.20
2023-02-24T01:51:53.028Z,11.20
2023-02-24T01:56:59.326Z,11.30
2023-02-24T02:02:07.011Z,11.30
2023-02-24T02:07:11.685Z,11.30
2023-02-24T02:12:16.339Z,11.20
2023-02-24T02:17:25.438Z,11.20
2023-02-24T02:23:02.220Z,11.20
2023-02-24T02:28:31.587Z,11.30
2023-02-24T02:34:11.779Z,11.30
2023-02-24T02:39:22.472Z,11.30
2023-02-24T02:44:32.349Z,11.40
2023-02-24T02:49:42.070Z,11.40
2023-02-24T02:54:49.966Z,11.40
2023-02-24T02:59:57.551Z,11.40
2023-02-24T03:05:04.941Z,11.40
2023-02-24T03:10:17.655Z,11.40
2023-02-24T03:15:23.437Z,11.40
2023-02-24T03:20:32.982Z,11.30
2023-02-24T03:25:44.569Z,11.30
2023-02-24T03:30:55.446Z,11.20
2023-02-24T03:36:01.801Z,11.20
2023-02-24T03:41:11.165Z,11.10
2023-02-24T03:46:16.968Z,11.10
2023-02-24T03:51:23.694Z,11.10
2023-02-24T03:56:34.721Z,11.10
2023-02-24T04:01:49.586Z,11.10
2023-02-24T04:06:58.462Z,11.10
2023-02-24T04:12:14.731Z,11.10
2023-02-24T04:17:21.855Z,11.10
2023-02-24T04:22:28.346Z,11.10
2023-02-24T04:27:31.668Z,11.20
2023-02-24T04:32:35.266Z,11.20
2023-02-24T04:37:44.558Z,11.20
2023-02-24T04:42:48.908Z,11.20
2023-02-24T04:47:56.301Z,11.20
2023-02-24T04:53:02.081Z,11.20
2023-02-24T04:58:05.287Z,11.20
2023-02-24T05:03:09.499Z,11.20
2023-02-24T05:08:15.892Z,11.20
2023-02-24T05:13:21.512Z,11.30
2023-02-24T05:18:24.970Z,11.20
2023-02-24T05:23:31.863Z,11.20
2023-02-24T05:28:34.995Z,11.20
2023-02-24T05:33:39.605Z,11.20
2023-02-24T05:38:44.545Z,11.20
2023-02-24T05:43:52.995Z,11.20
2023-02-24T05:48:58.020Z,11.20
2023-02-24T05:54:04.608Z,11.10
2023-02-24T05:59:10.831Z,11.10
2023-02-24T06:04:21.055Z,11.10
2023-02-24T06:09:25.576Z,11.10
2023-02-24T06:14:28.749Z,11.10
2023-02-24T06:19:33.514Z,11.10
2023-02-24T06:24:39.411Z,11.10
2023-02-24T06:29:42.732Z,11.00
2023-02-24T06:34:45.965Z,11.10
2023-02-24T06:39:50.598Z,11.00
2023-02-24T06:44:54.856Z,11.10
2023-02-24T06:49:57.931Z,11.00
2023-02-24T06:55:04.699Z,11.10
2023-02-24T07:00:17.016Z,11.10
2023-02-24T07:05:24.188Z,11.20
2023-02-24T07:10:29.529Z,11.20
2023-02-24T07:15:32.657Z,11.20
2023-02-24T07:20:43.677Z,11.30
2023-02-24T07:25:48.146Z,11.30
2023-02-24T07:30:52.624Z,11.40
2023-02-24T07:35:56.517Z,11.50
2023-02-24T07:41:01.039Z,11.50
2023-02-24T07:46:09.164Z,11.50
2023-02-24T07:51:15.757Z,11.60
2023-02-24T07:56:26.958Z,11.60
2023-02-24T08:01:38.829Z,11.60
2023-02-24T08:06:46.169Z,11.70
2023-02-24T08:11:55.045Z,11.70
2023-02-24T08:16:59.528Z,11.70
2023-02-24T08:22:19.352Z,11.80
2023-02-24T08:27:26.205Z,11.80
2023-02-24T08:32:34.009Z,11.90
2023-02-24T08:37:40.718Z,11.90
2023-02-24T08:42:45.176Z,11.90
2023-02-24T08:47:48.592Z,12.00
2023-02-24T08:52:51.691Z,12.00
2023-02-24T08:57:56.321Z,12.00
2023-02-24T09:02:59.439Z,12.10
2023-02-24T09:08:02.538Z,12.10
2023-02-24T09:13:08.718Z,12.10
2023-02-24T09:18:14.423Z,12.20
2023-02-24T09:23:21.016Z,12.20
2023-02-24T09:28:26.991Z,12.20
2023-02-24T09:33:39.074Z,12.20
2023-02-24T09:39:02.246Z,12.20
2023-02-24T09:44:18.450Z,12.30
2023-02-24T09:49:25.008Z,12.30
2023-02-24T09:54:32.819Z,12.40
2023-02-24T10:00:01.173Z,12.40
2023-02-24T10:05:14.843Z,12.40
2023-02-24T10:10:20.581Z,12.50
2023-02-24T10:15:47.449Z,12.50
2023-02-24T10:20:53.240Z,12.50
2023-02-24T10:26:06.772Z,12.50
2023-02-24T10:31:25.678Z,12.60
2023-02-24T10:36:35.468Z,12.60
2023-02-24T10:41:46.978Z,12.70
2023-02-24T10:47:11.297Z,12.70
2023-02-24T10:52:33.417Z,12.80
2023-02-24T10:57:58.639Z,12.90
2023-02-24T11:03:22.165Z,13.00
2023-02-24T11:08:40.033Z,13.00
2023-02-24T11:14:07.802Z,13.10
2023-02-24T11:19:13.355Z,13.10
2023-02-24T11:24:20.130Z,13.10
2023-02-24T11:29:39.306Z,13.00
2023-02-24T11:34:52.709Z,13.10
2023-02-24T11:40:01.011Z,13.10
2023-02-24T11:45:12.229Z,13.20
2023-02-24T11:50:39.722Z,13.20
2023-02-24T11:55:46.939Z,13.20
2023-02-24T12:00:56.703Z,13.20
2023-02-24T12:06:11.005Z,13.20
2023-02-24T12:11:21.146Z,13.20
2023-02-24T12:16:30.793Z,13.20
2023-02-24T12:21:39.446Z,13.30
2023-02-24T12:26:48.981Z,13.30
2023-02-24T12:32:01.864Z,13.20
2023-02-24T12:37:30.826Z,13.10
2023-02-24T12:42:43.145Z,13.20
2023-02-24T12:47:58.066Z,13.20
2023-02-24T12:53:10.583Z,13.20
2023-02-24T12:58:18.616Z,13.20
2023-02-24T13:03:35.582Z,13.30
2023-02-24T13:08:50.920Z,13.30
2023-02-24T13:14:01.873Z,13.40
2023-02-24T13:19:20.535Z,13.40
2023-02-24T13:24:26.420Z,13.40
2023-02-24T13:29:29.734Z,13.50
2023-02-24T13:34:35.111Z,13.60
2023-02-24T13:39:42.008Z,13.60
2023-02-24T13:44:50.753Z,13.70
2023-02-24T13:50:09.614Z,13.70
2023-02-24T13:55:41.257Z,13.80
2023-02-24T14:00:58.599Z,13.80
2023-02-24T14:06:02.933Z,13.80
2023-02-24T14:11:14.093Z,13.90
2023-02-24T14:16:21.688Z,14.00
2023-02-24T14:21:26.948Z,14.00
2023-02-24T14:26:42.867Z,14.00
2023-02-24T14:31:49.238Z,14.00
2023-02-24T14:36:55.171Z,14.00
2023-02-24T14:42:13.034Z,14.00
2023-02-24T14:47:17.737Z,14.10
2023-02-24T14:52:33.460Z,14.10
2023-02-24T14:57:43.920Z,14.10
2023-02-24T15:02:51.848Z,14.10
2023-02-24T15:07:55.116Z,14.00
2023-02-24T15:13:03.021Z,14.10
2023-02-24T15:18:13.596Z,14.10
2023-02-24T15:23:30.160Z,14.10
2023-02-24T15:28:36.704Z,14.10
2023-02-24T15:33:42.123Z,14.10
2023-02-24T15:38:46.390Z,14.10
2023-02-24T15:43:56.007Z,14.10
2023-02-24T15:49:03.058Z,14.10
2023-02-24T15:54:09.423Z,14.00
2023-02-24T15:59:15.993Z,14.00
2023-02-24T16:04:19.515Z,14.00
2023-02-24T16:09:28.276Z,14.00
2023-02-24T16:14:33.849Z,13.90
2023-02-24T16:19:37.304Z,13.90
2023-02-24T16:24:41.425Z,13.80
2023-02-24T16:29:46.255Z,13.80
2023-02-24T16:34:49.353Z,13.80
2023-02-24T16:39:52.936Z,13.80
2023-02-24T16:44:57.391Z,13.80
2023-02-24T16:50:00.549Z,13.70
2023-02-24T16:55:03.807Z,13.80
2023-02-24T17:00:10.081Z,13.80
2023-02-24T17:05:19.975Z,13.80
2023-02-24T17:10:24.260Z,13.80
2023-02-24T17:15:28.810Z,13.70
2023-02-24T17:20:31.900Z,13.60
2023-02-24T17:25:35.247Z,13.60
2023-02-24T17:30:40.312Z,13.60
2023-02-24T17:35:43.849Z,13.50
2023-02-24T17:40:47.728Z,13.50
2023-02-24T17:45:53.155Z,13.40
2023-02-24T17:50:56.332Z,13.40
2023-02-24T17:56:03.700Z,13.40
2023-02-24T18:01:08.678Z,13.40
2023-02-24T18:06:13.211Z,13.40
2023-02-24T18:11:18.057Z,13.40
2023-02-24T18:16:22.989Z,13.40
2023-02-24T18:21:26.956Z,13.40
2023-02-24T18:26:30.284Z,13.40
2023-02-24T18:31:34.940Z,13.30
2023-02-24T18:36:38.166Z,13.30
2023-02-24T18:41:41.356Z,13.20
2023-02-24T18:46:45.945Z,13.00
2023-02-24T18:51:49.469Z,12.90
2023-02-24T18:56:53.480Z,12.80
2023-02-24T19:01:58.199Z,12.70
2023-02-24T19:07:01.304Z,12.60
2023-02-24T19:12:04.587Z,12.50
2023-02-24T19:17:09.033Z,12.30
2023-02-24T19:22:12.215Z,12.30
2023-02-24T19:27:15.338Z,12.20
2023-02-24T19:32:19.949Z,12.10
2023-02-24T19:37:23.073Z,12.00
2023-02-24T19:42:26.342Z,12.00
2023-02-24T19:47:30.885Z,11.90
2023-02-24T19:52:33.967Z,11.80
2023-02-24T19:57:37.478Z,11.70
2023-02-24T20:02:42.204Z,11.60
2023-02-24T20:07:45.346Z,11.60
2023-02-24T20:12:48.418Z,11.50
2023-02-24T20:17:52.929Z,11.50
2023-02-24T20:22:55.974Z,11.40
2023-02-24T20:27:59.039Z,11.40
2023-02-24T20:33:03.498Z,11.30
2023-02-24T20:38:06.789Z,11.20
2023-02-24T20:43:11.275Z,11.20
2023-02-24T20:48:15.726Z,11.20
2023-02-24T20:53:18.839Z,11.10
2023-02-24T20:58:21.897Z,11.10
2023-02-24T21:03:26.361Z,11.10
2023-02-24T21:08:29.458Z,11.00
2023-02-24T21:13:32.522Z,10.90
2023-02-24T21:18:38.262Z,10.90
2023-02-24T21:23:41.432Z,10.80
2023-02-24T21:28:44.755Z,10.80
2023-02-24T21:33:53.073Z,10.70
2023-02-24T21:38:56.554Z,10.70
2023-02-24T21:44:00.583Z,10.70
2023-02-24T21:49:05.087Z,10.60
2023-02-24T21:54:08.670Z,10.50
2023-02-24T21:59:12.299Z,10.30
2023-02-24T22:04:20.254Z,10.20
2023-02-24T22:09:23.601Z,10.10
2023-02-24T22:14:26.701Z,10.00
2023-02-24T22:19:31.158Z,9.90
2023-02-24T22:24:34.245Z,9.90
2023-02-24T22:29:37.322Z,9.80
2023-02-24T22:34:41.952Z,9.80
2023-02-24T22:39:45.040Z,9.60
2023-02-24T22:44:48.489Z,9.40
2023-02-24T22:49:52.929Z,9.30
2023-02-24T22:54:56.014Z,9.00
2023-02-24T22:59:59.176Z,8.80
2023-02-24T23:05:03.641Z,8.60
2023-02-24T23:10:07.454Z,8.50
2023-02-24T23:15:11.434Z,8.40
2023-02-24T23:20:16.382Z,8.40
2023-02-24T23:25:19.566Z,8.40
2023-02-24T23:30:22.997Z,8.40
2023-02-24T23:35:27.500Z,8.40
2023-02-24T23:40:44.391Z,8.50
2023-02-24T23:45:52.292Z,8.50
2023-02-24T23:50:57.409Z,8.50
2023-02-24T23:56:00.502Z,8.50
